Time,TemperatureF,DewpointF,PressureIn,WindDirection,WindDirectionDegrees,WindSpeedMPH,WindSpeedGustMPH,Humidity,HourlyPrecipIn,Conditions,Clouds,dailyrainin,SoftwareType,DateUTC
2013-05-04 00:10:00,46.2,42.0,30.36,SSE,147,0.0,0.0,84,0.00,,,0.00,weatherlink.com 1.10,2013-05-04 04:10:00,
2013-05-04 00:25:00,45.6,41.0,30.36,ESE,108,0.0,2.0,85,0.00,,,0.00,weatherlink.com 1.10,2013-05-04 04:25:00,
2013-05-04 00:40:00,45.0,41.0,30.35,ESE,108,0.0,0.0,86,0.00,,,0.00,weatherlink.com 1.10,2013-05-04 04:40:00,
2013-05-04 00:59:00,44.5,41.0,30.35,ESE,108,0.0,0.0,87,0.00,,,0.00,weatherlink.com 1.10,2013-05-04 04:59:00,
2013-05-04 01:10:00,43.8,41.0,30.34,ESE,108,0.0,0.0,88,0.00,,,0.00,weatherlink.com 1.10,2013-05-04 05:10:00,
2013-05-04 01:25:00,43.0,40.0,30.34,ESE,108,0.0,0.0,90,0.00,,,0.00,weatherlink.com 1.10,2013-05-04 05:25:00,
2013-05-04 01:40:00,42.3,40.0,30.34,ESE,108,0.0,0.0,91,0.00,,,0.00,weatherlink.com 1.10,2013-05-04 05:40:00,
2013-05-04 01:59:00,41.9,40.0,30.33,ESE,108,0.0,0.0,92,0.00,,,0.00,weatherlink.com 1.10,2013-05-04 05:59:00,
2013-05-04 02:10:00,41.4,39.0,30.32,ESE,108,0.0,0.0,92,0.00,,,0.00,weatherlink.com 1.10,2013-05-04 06:10:00,
2013-05-04 02:25:00,41.1,39.0,30.32,ESE,108,0.0,0.0,92,0.00,,,0.00,weatherlink.com 1.10,2013-05-04 06:25:00,
2013-05-04 02:40:00,40.9,39.0,30.32,ESE,108,0.0,0.0,93,0.00,,,0.00,weatherlink.com 1.10,2013-05-04 06:40:00,
2013-05-04 02:59:00,40.8,39.0,30.32,ESE,108,0.0,0.0,93,0.00,,,0.00,weatherlink.com 1.10,2013-05-04 06:59:00,
2013-05-04 03:10:00,40.4,39.0,30.32,ESE,108,0.0,0.0,93,0.00,,,0.00,weatherlink.com 1.10,2013-05-04 07:10:00,
2013-05-04 03:25:00,40.1,39.0,30.31,ESE,108,0.0,0.0,94,0.00,,,0.00,weatherlink.com 1.10,2013-05-04 07:25:00,
2013-05-04 03:40:00,39.9,38.0,30.31,ESE,108,0.0,0.0,94,0.00,,,0.00,weatherlink.com 1.10,2013-05-04 07:40:00,
2013-05-04 03:59:00,39.6,38.0,30.31,ESE,108,0.0,0.0,94,0.00,,,0.00,weatherlink.com 1.10,2013-05-04 07:59:00,
2013-05-04 04:10:00,39.3,38.0,30.31,ESE,108,0.0,0.0,94,0.00,,,0.00,weatherlink.com 1.10,2013-05-04 08:10:00,
2013-05-04 04:25:00,38.9,37.0,30.31,ESE,108,0.0,0.0,94,0.00,,,0.00,weatherlink.com 1.10,2013-05-04 08:25:00,
2013-05-04 04:40:00,38.6,37.0,30.31,ESE,108,0.0,0.0,95,0.00,,,0.00,weatherlink.com 1.10,2013-05-04 08:40:00,
2013-05-04 04:59:00,38.8,38.0,30.31,ESE,108,0.0,0.0,95,0.00,,,0.00,weatherlink.com 1.10,2013-05-04 08:59:00,
2013-05-04 05:10:00,38.4,37.0,30.31,ESE,108,0.0,0.0,95,0.00,,,0.00,weatherlink.com 1.10,2013-05-04 09:10:00,
2013-05-04 05:25:00,38.2,37.0,30.31,ESE,108,0.0,0.0,95,0.00,,,0.00,weatherlink.com 1.10,2013-05-04 09:25:00,
2013-05-04 05:40:00,38.1,37.0,30.31,ESE,108,0.0,0.0,95,0.00,,,0.00,weatherlink.com 1.10,2013-05-04 09:40:00,
2013-05-04 05:59:00,38.1,37.0,30.32,ESE,108,0.0,0.0,95,0.00,,,0.00,weatherlink.com 1.10,2013-05-04 09:59:00,
2013-05-04 06:10:00,38.0,37.0,30.32,ESE,108,0.0,0.0,95,0.00,,,0.00,weatherlink.com 1.10,2013-05-04 10:10:00,
2013-05-04 06:25:00,37.9,37.0,30.32,ESE,108,0.0,0.0,95,0.00,,,0.00,weatherlink.com 1.10,2013-05-04 10:25:00,
2013-05-04 06:40:00,38.1,37.0,30.33,ESE,108,0.0,0.0,95,0.00,,,0.00,weatherlink.com 1.10,2013-05-04 10:40:00,
2013-05-04 06:59:00,38.9,38.0,30.33,ESE,108,0.0,0.0,96,0.00,,,0.00,weatherlink.com 1.10,2013-05-04 10:59:00,
2013-05-04 07:10:00,40.3,39.0,30.33,ESE,108,0.0,0.0,96,0.00,,,0.00,weatherlink.com 1.10,2013-05-04 11:10:00,
2013-05-04 07:25:00,42.1,41.0,30.33,ESE,108,0.0,0.0,96,0.00,,,0.00,weatherlink.com 1.10,2013-05-04 11:25:00,
2013-05-04 07:40:00,43.7,42.0,30.33,ESE,108,0.0,0.0,95,0.00,,,0.00,weatherlink.com 1.10,2013-05-04 11:40:00,
2013-05-04 08:11:00,49.1,45.0,30.33,ESE,108,1.0,2.0,85,0.00,,,0.00,weatherlink.com 1.10,2013-05-04 12:11:00,
2013-05-04 08:26:00,49.8,44.0,30.33,NE,51,2.0,5.0,81,0.00,,,0.00,weatherlink.com 1.10,2013-05-04 12:26:00,
2013-05-04 08:41:00,50.3,45.0,30.33,ESE,109,3.0,5.0,81,0.00,,,0.00,weatherlink.com 1.10,2013-05-04 12:41:00,
2013-05-04 09:00:00,51.7,46.0,30.33,East,88,1.0,5.0,80,0.00,,,0.00,weatherlink.com 1.10,2013-05-04 13:00:00,
2013-05-04 09:11:00,52.8,46.0,30.33,SSE,157,5.0,7.0,78,0.00,,,0.00,weatherlink.com 1.10,2013-05-04 13:11:00,
2013-05-04 09:26:00,54.0,46.0,30.32,East,80,5.0,8.0,75,0.00,,,0.00,weatherlink.com 1.10,2013-05-04 13:26:00,
2013-05-04 09:41:00,55.4,46.0,30.32,East,101,6.0,9.0,72,0.00,,,0.00,weatherlink.com 1.10,2013-05-04 13:41:00,
2013-05-04 10:00:00,56.5,47.0,30.32,NE,39,2.0,10.0,70,0.00,,,0.00,weatherlink.com 1.10,2013-05-04 14:00:00,
2013-05-04 10:11:00,57.0,46.0,30.31,East,88,6.0,9.0,68,0.00,,,0.00,weatherlink.com 1.10,2013-05-04 14:11:00,
2013-05-04 10:26:00,57.4,46.0,30.31,ENE,76,4.0,9.0,66,0.00,,,0.00,weatherlink.com 1.10,2013-05-04 14:26:00,
2013-05-04 10:41:00,58.9,47.0,30.31,East,94,3.0,7.0,64,0.00,,,0.00,weatherlink.com 1.10,2013-05-04 14:41:00,
2013-05-04 11:00:00,60.2,47.0,30.30,East,91,3.0,8.0,62,0.00,,,0.00,weatherlink.com 1.10,2013-05-04 15:00:00,
2013-05-04 11:11:00,60.1,46.0,30.30,East,92,2.0,8.0,61,0.00,,,0.00,weatherlink.com 1.10,2013-05-04 15:11:00,
2013-05-04 11:26:00,61.0,46.0,30.29,ESE,118,2.0,9.0,59,0.00,,,0.00,weatherlink.com 1.10,2013-05-04 15:26:00,
2013-05-04 11:41:00,61.6,46.0,30.29,ENE,78,5.0,9.0,56,0.00,,,0.00,weatherlink.com 1.10,2013-05-04 15:41:00,
2013-05-04 12:00:00,62.4,46.0,30.29,ESE,105,4.0,11.0,55,0.00,,,0.00,weatherlink.com 1.10,2013-05-04 16:00:00,
2013-05-04 12:11:00,63.1,44.0,30.28,SSE,151,4.0,10.0,50,0.00,,,0.00,weatherlink.com 1.10,2013-05-04 16:11:00,
2013-05-04 12:26:00,64.0,45.0,30.27,NE,43,6.0,11.0,50,0.00,,,0.00,weatherlink.com 1.10,2013-05-04 16:26:00,
2013-05-04 12:41:00,64.3,42.0,30.27,East,82,6.0,12.0,45,0.00,,,0.00,weatherlink.com 1.10,2013-05-04 16:41:00,
2013-05-04 13:00:00,65.2,44.0,30.27,ESE,103,2.0,9.0,46,0.00,,,0.00,weatherlink.com 1.10,2013-05-04 17:00:00,
2013-05-04 13:11:00,65.9,43.0,30.26,East,87,3.0,12.0,44,0.00,,,0.00,weatherlink.com 1.10,2013-05-04 17:11:00,
2013-05-04 13:27:00,66.5,42.0,30.26,SSE,160,5.0,9.0,41,0.00,,,0.00,weatherlink.com 1.10,2013-05-04 17:27:00,
2013-05-04 13:42:00,66.8,42.0,30.26,ESE,107,5.0,11.0,41,0.00,,,0.00,weatherlink.com 1.10,2013-05-04 17:42:00,
2013-05-04 14:01:00,67.4,42.0,30.25,East,92,6.0,11.0,40,0.00,,,0.00,weatherlink.com 1.10,2013-05-04 18:01:00,
2013-05-04 14:12:00,67.5,43.0,30.24,SSE,153,2.0,11.0,41,0.00,,,0.00,weatherlink.com 1.10,2013-05-04 18:12:00,
2013-05-04 14:27:00,68.0,43.0,30.24,SE,130,6.0,11.0,40,0.00,,,0.00,weatherlink.com 1.10,2013-05-04 18:27:00,
2013-05-04 14:42:00,68.5,43.0,30.24,SE,124,0.0,13.0,40,0.00,,,0.00,weatherlink.com 1.10,2013-05-04 18:42:00,
2013-05-04 15:01:00,68.3,41.0,30.23,SE,126,12.0,15.0,37,0.00,,,0.00,weatherlink.com 1.10,2013-05-04 19:01:00,
2013-05-04 15:12:00,69.2,42.0,30.22,ESE,108,2.0,9.0,37,0.00,,,0.00,weatherlink.com 1.10,2013-05-04 19:12:00,
2013-05-04 15:27:00,68.5,41.0,30.22,SE,129,4.0,14.0,37,0.00,,,0.00,weatherlink.com 1.10,2013-05-04 19:27:00,
2013-05-04 15:42:00,68.9,41.0,30.22,ENE,76,8.0,13.0,36,0.00,,,0.00,weatherlink.com 1.10,2013-05-04 19:42:00,
2013-05-04 16:01:00,69.0,41.0,30.21,East,94,8.0,13.0,36,0.00,,,0.00,weatherlink.com 1.10,2013-05-04 20:01:00,
2013-05-04 16:12:00,68.5,41.0,30.21,SE,126,4.0,15.0,37,0.00,,,0.00,weatherlink.com 1.10,2013-05-04 20:12:00,
2013-05-04 16:27:00,69.1,42.0,30.21,ESE,119,3.0,16.0,37,0.00,,,0.00,weatherlink.com 1.10,2013-05-04 20:27:00,
2013-05-04 16:42:00,68.8,41.0,30.20,East,82,11.0,14.0,36,0.00,,,0.00,weatherlink.com 1.10,2013-05-04 20:42:00,
2013-05-04 17:01:00,69.0,41.0,30.20,ENE,78,7.0,11.0,36,0.00,,,0.00,weatherlink.com 1.10,2013-05-04 21:01:00,
2013-05-04 17:11:00,68.9,41.0,30.20,SSE,151,5.0,10.0,37,0.00,,,0.00,weatherlink.com 1.10,2013-05-04 21:11:00,
2013-05-04 17:26:00,68.6,42.0,30.20,SE,136,5.0,11.0,38,0.00,,,0.00,weatherlink.com 1.10,2013-05-04 21:26:00,
2013-05-04 17:41:00,68.4,40.0,30.20,SSE,154,8.0,14.0,36,0.00,,,0.00,weatherlink.com 1.10,2013-05-04 21:41:00,
2013-05-04 17:56:00,68.4,39.0,30.20,ESE,115,8.0,11.0,34,0.00,,,0.00,weatherlink.com 1.10,2013-05-04 21:56:00,
2013-05-04 18:12:00,68.1,40.0,30.20,ESE,107,7.0,11.0,36,0.00,,,0.00,weatherlink.com 1.10,2013-05-04 22:12:00,
2013-05-04 18:27:00,67.5,39.0,30.20,ESE,108,5.0,9.0,36,0.00,,,0.00,weatherlink.com 1.10,2013-05-04 22:27:00,
2013-05-04 18:42:00,67.0,40.0,30.20,SSE,152,6.0,11.0,37,0.00,,,0.00,weatherlink.com 1.10,2013-05-04 22:42:00,
2013-05-04 19:01:00,66.3,39.0,30.20,ESE,113,4.0,10.0,37,0.00,,,0.00,weatherlink.com 1.10,2013-05-04 23:01:00,
2013-05-04 19:12:00,65.5,40.0,30.20,ESE,120,4.0,7.0,40,0.00,,,0.00,weatherlink.com 1.10,2013-05-04 23:12:00,
2013-05-04 19:27:00,64.3,39.0,30.20,SE,140,2.0,7.0,39,0.00,,,0.00,weatherlink.com 1.10,2013-05-04 23:27:00,
2013-05-04 19:42:00,63.3,39.0,30.20,SE,146,2.0,7.0,41,0.00,,,0.00,weatherlink.com 1.10,2013-05-04 23:42:00,
2013-05-04 20:01:00,62.3,39.0,30.20,ESE,123,1.0,4.0,43,0.00,,,0.00,weatherlink.com 1.10,2013-05-05 00:01:00,
2013-05-04 20:12:00,60.9,40.0,30.20,SE,128,0.0,3.0,46,0.00,,,0.00,weatherlink.com 1.10,2013-05-05 00:12:00,
2013-05-04 20:27:00,59.6,42.0,30.20,ESE,117,0.0,2.0,52,0.00,,,0.00,weatherlink.com 1.10,2013-05-05 00:27:00,
2013-05-04 20:42:00,57.7,41.0,30.20,ESE,113,0.0,2.0,55,0.00,,,0.00,weatherlink.com 1.10,2013-05-05 00:42:00,
2013-05-04 21:01:00,56.9,41.0,30.21,ESE,113,1.0,2.0,55,0.00,,,0.00,weatherlink.com 1.10,2013-05-05 01:01:00,
2013-05-04 21:12:00,55.7,40.0,30.22,ESE,113,1.0,3.0,56,0.00,,,0.00,weatherlink.com 1.10,2013-05-05 01:12:00,
2013-05-04 21:27:00,56.1,39.0,30.22,ESE,113,1.0,3.0,54,0.00,,,0.00,weatherlink.com 1.10,2013-05-05 01:27:00,
2013-05-04 21:41:00,56.3,40.0,30.22,East,94,1.0,3.0,55,0.00,,,0.00,weatherlink.com 1.10,2013-05-05 01:41:00,
2013-05-04 22:02:00,54.1,39.0,30.23,South,172,0.0,3.0,58,0.00,,,0.00,weatherlink.com 1.10,2013-05-05 02:02:00,
2013-05-04 22:11:00,54.2,39.0,30.24,East,101,1.0,4.0,57,0.00,,,0.00,weatherlink.com 1.10,2013-05-05 02:11:00,
2013-05-04 22:27:00,54.3,40.0,30.25,SSE,155,4.0,7.0,60,0.00,,,0.00,weatherlink.com 1.10,2013-05-05 02:27:00,
2013-05-04 22:42:00,53.8,41.0,30.25,SSE,161,0.0,2.0,62,0.00,,,0.00,weatherlink.com 1.10,2013-05-05 02:42:00,
2013-05-04 23:01:00,52.8,42.0,30.25,SSE,153,1.0,3.0,66,0.00,,,0.00,weatherlink.com 1.10,2013-05-05 03:01:00,
2013-05-04 23:12:00,52.1,42.0,30.25,ESE,119,1.0,4.0,68,0.00,,,0.00,weatherlink.com 1.10,2013-05-05 03:12:00,
2013-05-04 23:27:00,51.8,42.0,30.25,ESE,103,4.0,5.0,69,0.00,,,0.00,weatherlink.com 1.10,2013-05-05 03:27:00,
2013-05-04 23:42:00,51.5,42.0,30.26,SSE,152,1.0,4.0,70,0.00,,,0.00,weatherlink.com 1.10,2013-05-05 03:42:00,